Latest Weather Observations for Coonawarra

IDS60801

Issued at 2:32 pm CDT Thursday 5 March 2015 (issued every 30 minutes, with the page automatically refreshed every 10 minutes)

About weather observations | Map of weather stations | Latest weather observations for SA | Other Formats
Station Details ID: 026091 Name: COONAWARRA Lat: -37.29 Lon: 140.83 Height: 57.0 m
Data from the previous 72 hours. | See also: Recent months at Coonawarra
Date/Time
CDT
Temp
°C
App
Temp
°C
Dew
Point
Rel
Hum
%
Delta-T
°C
Wind Press
QNH
hPa
Press
MSL
hPa
Rain
since 9 am
mm
Dir
 
Spd
km/h
Gust
km/h
Spd
kts
Gust
kts
05/02:30pm 18.8 12.7 2.5 33 7.5 SW 24 41 13 22 1019.9 1019.8 0.0
05/02:00pm 19.4 13.1 1.5 30 8.1 SSW 24 33 13 18 1020.0 1019.9 0.0
05/01:30pm 19.1 13.5 1.3 30 8.0 SW 20 33 11 18 1020.4 1020.3 0.0
05/01:00pm 18.8 13.3 1.8 32 7.7 SW 20 35 11 19 1020.6 1020.5 0.0
05/12:30pm 18.4 12.7 2.8 35 7.2 SSW 22 37 12 20 1021.0 1020.9 0.0
05/12:00pm 18.0 12.3 2.7 36 7.0 SSW 22 35 12 19 1021.4 1021.3 0.0
05/11:30am 17.8 12.4 2.7 36 6.9 SSW 20 35 11 19 1021.6 1021.5 0.0
05/11:00am 17.1 11.8 2.9 38 6.5 SSW 20 33 11 18 1021.7 1021.6 0.0
05/10:30am 16.9 11.3 3.2 40 6.3 S 22 32 12 17 1021.6 1021.5 0.0
05/10:00am 15.9 9.6 3.7 44 5.6 SSW 26 39 14 21 1021.7 1021.6 0.0
05/09:30am 14.9 9.1 4.3 49 4.9 SSW 24 35 13 19 1021.3 1021.2 0.0
05/09:00am 13.9 9.2 5.1 55 4.1 SSW 19 30 10 16 1021.0 1020.9 0.8
05/08:30am 12.4 9.8 6.0 65 3.0 SW 9 15 5 8 1020.6 1020.5 0.8
05/08:00am 10.0 7.6 5.4 73 2.1 W 7 9 4 5 1020.1 1020.0 0.8
05/07:30am 7.3 4.4 4.8 84 1.1 WNW 9 13 5 7 1019.7 1019.6 0.8
05/07:00am 6.9 4.3 4.4 84 1.1 WNW 7 9 4 5 1019.3 1019.2 0.8
05/06:30am 8.3 5.3 4.2 75 1.8 WSW 9 13 5 7 1019.1 1019.0 0.8
05/06:00am 8.8 5.4 4.0 72 2.1 SW 11 13 6 7 1018.4 1018.3 0.8
05/05:30am 10.5 6.6 3.4 61 3.1 SW 13 17 7 9 1017.9 1017.8 0.8
05/05:00am 11.1 6.0 2.8 56 3.6 SW 19 28 10 15 1018.0 1017.9 0.8
05/04:30am 11.9 6.8 4.1 59 3.5 SSW 20 30 11 16 1018.1 1018.0 0.8
05/04:00am 12.2 7.8 4.8 60 3.4 SSW 17 22 9 12 1017.9 1017.8 0.8
05/03:30am 12.9 7.7 5.7 61 3.4 SSW 22 32 12 17 1017.4 1017.3 0.8
05/03:00am 13.0 7.9 7.5 69 2.7 SSW 24 35 13 19 1016.9 1016.8 0.8
05/02:30am 13.0 8.2 8.8 75 2.1 SSW 24 46 13 25 1016.8 1016.7 0.8
05/02:23am 13.2 7.6 8.6 73 2.3 SSW 28 46 15 25 1016.8 1016.7 0.8
05/02:00am 13.9 9.2 7.8 66 3.0 SW 22 37 12 20 1016.4 1016.3 0.8
05/01:30am 14.2 9.9 9.3 72 2.5 SW 22 32 12 17 1016.3 1016.2 0.8
05/01:00am 14.7 9.8 10.1 74 2.4 SW 26 43 14 23 1016.2 1016.1 0.8
05/12:30am 14.7 10.8 10.7 77 2.1 SW 22 35 12 19 1015.8 1015.7 0.8
05/12:00am 14.8 11.6 11.2 79 1.9 WSW 19 30 10 16 1015.3 1015.2 0.8
 
Date/Time
CDT
Temp
°C
App
Temp
°C
Dew
Point
Rel
Hum
%
Delta-T
°C
Wind Press
QNH
hPa
Press
MSL
hPa
Rain
since 9 am
mm
Dir
 
Spd
km/h
Gust
km/h
Spd
kts
Gust
kts
04/11:30pm 14.9 11.4 12.3 84 1.4 WSW 22 32 12 17 1014.8 1014.7 0.8
04/11:00pm 15.1 11.4 13.9 92 0.7 WSW 26 44 14 24 1014.8 1014.7 0.8
04/10:30pm 15.5 13.0 14.1 91 0.8 W 20 30 11 16 1014.5 1014.4 0.4
04/10:00pm 15.6 12.6 13.8 89 1.0 WNW 22 33 12 18 1014.4 1014.3 0.2
04/09:30pm 15.3 12.9 13.7 90 0.9 WNW 19 28 10 15 1014.1 1014.0 0.2
04/09:00pm 15.5 12.9 13.9 90 0.9 WNW 20 28 11 15 1014.2 1014.1 0.2
04/08:30pm 15.1 13.8 13.7 91 0.8 WNW 13 17 7 9 1014.1 1014.0 0.2
04/08:00pm 15.2 12.7 13.4 89 1.0 WNW 19 30 10 16 1014.0 1013.9 0.2
04/07:30pm 15.5 12.6 13.9 90 0.9 WNW 22 33 12 18 1014.1 1014.0 0.0
04/07:00pm 17.4 13.3 12.7 74 2.6 W 26 33 14 18 1014.0 1013.9 0.0
04/06:30pm 18.2 15.1 11.6 65 3.6 W 19 26 10 14 1013.6 1013.5 0.0
04/06:06pm 18.1 13.3 11.5 65 3.6 W 28 46 15 25 1013.9 1013.8 0.0
04/06:00pm 18.6 12.8 10.9 61 4.2 W 32 46 17 25 1014.0 1013.9 0.0
04/05:30pm 19.5 14.7 10.2 55 5.0 W 26 35 14 19 1013.7 1013.6 0.0
04/05:00pm 20.0 15.2 10.2 53 5.3 W 26 37 14 20 1013.7 1013.6 0.0
04/04:30pm 20.6 15.4 10.3 51 5.6 W 28 46 15 25 1013.7 1013.6 0.0
04/04:00pm 20.2 14.7 10.7 54 5.2 WNW 30 44 16 24 1014.2 1014.1 0.0
04/03:30pm 19.4 14.3 12.0 62 4.1 W 30 41 16 22 1014.6 1014.5 0.0
04/03:10pm 19.3 14.4 11.3 60 4.4 W 28 46 15 25 1014.8 1014.7 0.0
04/03:00pm 19.5 14.5 11.1 58 4.6 W 28 41 15 22 1014.9 1014.8 0.0
04/02:30pm 20.4 15.8 10.9 54 5.2 W 26 37 14 20 1014.9 1014.8 0.0
04/02:00pm 19.8 16.3 11.0 57 4.8 W 20 33 11 18 1015.3 1015.2 0.0
04/01:30pm 18.8 14.3 11.3 61 4.1 WNW 26 39 14 21 1015.6 1015.5 0.0
04/01:00pm 19.5 15.2 10.9 57 4.7 W 24 33 13 18 1015.9 1015.8 0.0
04/12:30pm 19.6 16.2 10.6 56 4.9 WNW 19 28 10 15 1016.1 1016.0 0.0
04/12:00pm 18.4 14.8 10.4 59 4.3 W 20 28 11 15 1016.5 1016.4 0.0
04/11:30am 18.3 14.9 10.7 61 4.1 W 19 26 10 14 1017.0 1016.9 0.0
04/11:00am 17.4 13.8 10.5 64 3.7 W 20 28 11 15 1017.1 1017.0 0.0
04/10:30am 17.2 14.0 9.8 61 3.9 W 17 20 9 11 1017.2 1017.1 0.0
04/10:00am 16.8 13.8 9.1 60 4.0 WNW 15 20 8 11 1017.1 1017.0 0.0
04/09:30am 16.3 13.6 9.1 62 3.7 NW 13 20 7 11 1017.1 1017.0 0.0
04/09:00am 15.3 13.0 9.1 66 3.2 NNW 11 17 6 9 1017.0 1016.9 0.0
04/08:30am 14.5 11.9 9.2 70 2.7 NNW 13 15 7 8 1016.9 1016.8 0.0
04/08:00am 13.4 11.5 9.1 75 2.2 NNW 9 13 5 7 1016.7 1016.6 0.0
04/07:30am 12.8 10.8 8.8 76 2.0 NNW 9 11 5 6 1016.7 1016.6 0.0
04/07:00am 11.9 10.4 9.1 83 1.4 NW 7 9 4 5 1016.3 1016.2 0.0
04/06:30am 11.7 9.8 8.9 83 1.4 NNW 9 13 5 7 1016.1 1016.0 0.0
04/06:00am 11.0 9.4 8.8 86 1.1 NNW 7 9 4 5 1016.1 1016.0 0.0
04/05:30am 10.5 8.9 8.9 90 0.8 NNW 7 11 4 6 1015.9 1015.8 0.0
04/05:00am 10.8 9.6 9.4 91 0.7 NNW 6 9 3 5 1016.2 1016.1 0.0
04/04:30am 9.8 8.1 8.4 91 0.7 N 7 9 4 5 1016.3 1016.2 0.0
04/04:00am 9.5 7.3 8.0 90 0.7 N 9 11 5 6 1016.5 1016.4 0.0
04/03:30am 9.3 8.9 8.1 92 0.6 CALM 0 0 0 0 1016.7 1016.6 0.0
04/03:00am 8.2 6.2 6.9 91 0.6 WNW 7 9 4 5 1017.1 1017.0 0.0
04/02:30am 7.0 4.7 5.7 91 0.6 WNW 7 9 4 5 1017.4 1017.3 0.0
04/02:00am 7.7 5.5 6.2 90 0.7 NW 7 9 4 5 1017.6 1017.5 0.0
04/01:30am 7.7 5.1 5.9 88 0.8 NW 9 9 5 5 1017.6 1017.5 0.0
04/01:00am 8.0 5.9 6.5 90 0.7 NW 7 9 4 5 1017.7 1017.6 0.0
04/12:30am 8.5 6.4 6.8 89 0.8 WNW 7 9 4 5 1017.9 1017.8 0.0
04/12:00am 8.8 8.1 6.9 88 0.9 CALM 0 2 0 1 1018.1 1018.0 0.0
 
Date/Time
CDT
Temp
°C
App
Temp
°C
Dew
Point
Rel
Hum
%
Delta-T
°C
Wind Press
QNH
hPa
Press
MSL
hPa
Rain
since 9 am
mm
Dir
 
Spd
km/h
Gust
km/h
Spd
kts
Gust
kts
03/11:30pm 9.2 8.5 7.1 87 1.0 CALM 0 0 0 0 1018.4 1018.3 0.0
03/11:00pm 10.1 8.5 7.8 86 1.1 SW 6 7 3 4 1018.4 1018.3 0.0
03/10:30pm 11.8 9.8 8.6 81 1.6 SW 9 11 5 6 1018.6 1018.5 0.0
03/10:00pm 12.9 10.1 8.7 75 2.1 SW 13 15 7 8 1018.6 1018.5 0.0
03/09:30pm 14.1 12.1 8.8 70 2.7 SSW 9 13 5 7 1018.5 1018.4 0.0
03/09:00pm 15.1 12.3 8.6 65 3.3 SSW 13 15 7 8 1018.4 1018.3 0.0
03/08:30pm 15.3 12.3 7.7 60 3.8 SW 13 19 7 10 1018.0 1017.9 0.0
03/08:00pm 16.6 12.6 6.6 51 4.9 SW 17 22 9 12 1017.6 1017.5 0.0
03/07:30pm 18.3 13.8 6.1 44 6.0 SW 19 26 10 14 1017.2 1017.1 0.0
03/07:00pm 19.8 15.1 6.2 41 6.8 SW 20 32 11 17 1016.8 1016.7 0.0
03/06:30pm 21.0 15.9 6.1 38 7.5 SW 22 28 12 15 1016.5 1016.4 0.0
03/06:00pm 22.2 17.7 6.8 37 7.9 SW 20 32 11 17 1016.2 1016.1 0.0
03/05:30pm 23.1 18.7 7.4 36 8.2 SW 20 28 11 15 1016.0 1015.9 0.0
03/05:00pm 23.4 19.2 7.3 35 8.4 SW 19 33 10 18 1016.0 1015.9 0.0
03/04:30pm 23.5 19.2 6.9 34 8.6 SW 19 30 10 16 1016.0 1015.9 0.0
03/04:00pm 24.0 20.0 6.6 32 9.0 SSW 17 32 9 17 1016.1 1016.0 0.0
03/03:30pm 24.1 19.7 6.7 32 9.0 SW 19 28 10 15 1016.1 1016.0 0.0
03/03:00pm 24.7 21.6 7.1 32 9.2 SW 13 24 7 13 1016.5 1016.4 0.0
03/02:30pm 23.2 19.7 7.0 35 8.4 S 15 24 8 13 1016.7 1016.6 0.0
03/02:00pm 23.1 19.6 7.1 35 8.3 SW 15 26 8 14 1017.1 1017.0 0.0
03/01:30pm 22.6 19.0 6.6 35 8.2 S 15 26 8 14 1017.5 1017.4 0.0
03/01:00pm 22.1 19.8 7.4 38 7.6 SSW 9 20 5 11 1018.0 1017.9 0.0
03/12:30pm 22.2 18.4 7.6 39 7.6 SSW 17 26 9 14 1018.5 1018.4 0.0
03/12:00pm 20.7 16.8 7.2 41 6.9 SSW 17 24 9 13 1018.8 1018.7 0.0
03/11:30am 20.2 16.8 7.5 43 6.5 S 15 20 8 11 1019.0 1018.9 0.0
03/11:00am 19.5 16.3 8.6 49 5.7 SSW 15 22 8 12 1019.1 1019.0 0.0
03/10:30am 19.2 16.3 9.8 54 5.0 SSE 15 24 8 13 1019.2 1019.1 0.0
03/10:00am 18.3 15.0 9.6 57 4.6 SSE 17 22 9 12 1019.2 1019.1 0.0
03/09:30am 17.2 15.5 11.1 67 3.3 SE 11 17 6 9 1019.2 1019.1 0.0
03/09:00am 15.8 14.4 10.9 72 2.6 SSE 9 11 5 6 1019.0 1018.9 0.0
03/08:30am 13.7 13.5 10.4 80 1.7 S 2 7 1 4 1018.6 1018.5 0.0
03/08:00am 11.8 11.5 10.2 90 0.8 S 2 6 1 3 1018.3 1018.2 0.0
03/07:30am 9.4 9.0 8.4 93 0.5 CALM 0 0 0 0 1018.1 1018.0 0.0
03/07:00am 9.2 8.0 7.9 92 0.6 S 4 6 2 3 1017.8 1017.7 0.0
03/06:30am 9.2 7.5 8.4 95 0.4 S 7 7 4 4 1017.4 1017.3 0.0
03/06:00am 9.2 6.2 7.9 92 0.6 SSW 13 15 7 8 1017.2 1017.1 0.0
03/05:30am 9.8 8.2 8.6 92 0.6 S 7 9 4 5 1016.7 1016.6 0.0
03/05:00am 10.6 9.0 8.8 89 0.9 S 7 9 4 5 1016.5 1016.4 0.0
03/04:30am 11.3 9.4 9.1 86 1.1 S 9 11 5 6 1016.4 1016.3 0.0
03/04:00am 11.8 9.9 9.2 84 1.3 S 9 13 5 7 1016.3 1016.2 0.0
03/03:30am 12.2 10.3 9.2 82 1.5 S 9 11 5 6 1016.5 1016.4 0.0
03/03:00am 11.8 9.9 9.0 83 1.4 S 9 11 5 6 1016.2 1016.1 0.0
03/02:30am 12.4 10.5 9.0 80 1.7 S 9 9 5 5 1016.7 1016.6 0.0
03/02:00am 13.0 11.1 9.0 77 2.0 S 9 11 5 6 1016.8 1016.7 0.0
03/01:30am 14.1 12.2 9.0 71 2.6 S 9 11 5 6 1016.9 1016.8 0.0
03/01:00am 15.0 13.1 8.9 67 3.1 S 9 13 5 7 1017.1 1017.0 0.0
03/12:30am 15.4 13.0 8.7 64 3.4 S 11 15 6 8 1017.1 1017.0 0.0
03/12:00am 15.9 13.8 8.4 61 3.8 S 9 15 5 8 1017.2 1017.1 0.0
 
Date/Time
CDT
Temp
°C
App
Temp
°C
Dew
Point
Rel
Hum
%
Delta-T
°C
Wind Press
QNH
hPa
Press
MSL
hPa
Rain
since 9 am
mm
Dir
 
Spd
km/h
Gust
km/h
Spd
kts
Gust
kts
02/11:30pm 16.3 14.2 8.2 58 4.1 SSE 9 15 5 8 1017.3 1017.2 0.0
02/11:00pm 16.7 13.8 8.0 56 4.4 S 13 20 7 11 1017.1 1017.0 0.0
02/10:30pm 16.9 14.0 8.3 57 4.4 SSE 13 19 7 10 1016.8 1016.7 0.0
02/10:00pm 17.2 14.4 8.4 56 4.5 SSE 13 17 7 9 1016.7 1016.6 0.0
02/09:30pm 17.5 14.3 8.3 54 4.7 S 15 20 8 11 1016.4 1016.3 0.0
02/09:00pm 17.8 15.0 8.5 54 4.8 S 13 17 7 9 1015.9 1015.8 0.0
02/08:30pm 18.1 15.6 8.4 53 5.0 SE 11 15 6 8 1015.5 1015.4 0.0
02/08:00pm 18.5 15.7 8.4 51 5.2 SSE 13 19 7 10 1015.6 1015.5 0.0
02/07:30pm 19.4 15.8 8.2 48 5.8 S 17 24 9 13 1015.2 1015.1 0.0
02/07:00pm 20.2 15.8 7.6 44 6.5 S 20 26 11 14 1015.1 1015.0 0.0
02/06:30pm 21.2 16.9 7.2 40 7.2 S 19 26 10 14 1014.7 1014.6 0.0
02/06:00pm 22.3 16.8 7.5 38 7.7 SSW 26 35 14 19 1013.9 1013.8 0.0
02/05:30pm 24.0 21.1 6.6 32 9.0 SW 11 17 6 9 1013.9 1013.8 0.0
02/05:00pm 24.6 21.1 7.0 32 9.2 W 15 20 8 11 1014.0 1013.9 0.0
02/04:30pm 25.1 22.6 6.7 30 9.6 W 9 19 5 10 1014.0 1013.9 0.0
02/04:00pm 25.2 21.8 6.0 29 9.9 W 13 22 7 12 1013.8 1013.7 0.0
02/03:30pm 25.2 21.6 4.8 27 10.3 W 13 17 7 9 1013.5 1013.4 0.0
02/03:00pm 25.4 23.4 6.3 29 9.9 NNW 6 9 3 5 1013.9 1013.8 0.0

Other Formats:

Comma delimited format used in spreadsheet applications
http://www.bom.gov.au/fwo/IDS60801/IDS60801.94817.axf

JavaScript Object Notation format (JSON) in row-major order
http://www.bom.gov.au/fwo/IDS60801/IDS60801.94817.json